createdAt,value
2023-05-22T00:01:56.800Z,15.28
2023-05-22T00:04:23.762Z,15.27
2023-05-22T00:06:50.663Z,15.31
2023-05-22T00:09:17.848Z,15.43
2023-05-22T00:11:44.731Z,15.57
2023-05-22T00:14:13.598Z,15.72
2023-05-22T00:16:41.335Z,15.80
2023-05-22T00:19:16.614Z,15.81
2023-05-22T00:21:44.259Z,15.78
2023-05-22T00:24:11.120Z,15.77
2023-05-22T00:26:38.100Z,15.70
2023-05-22T00:29:08.126Z,15.63
2023-05-22T00:31:35.077Z,15.59
2023-05-22T00:34:02.027Z,15.60
2023-05-22T00:36:29.314Z,15.59
2023-05-22T00:38:56.155Z,15.65
2023-05-22T00:41:23.068Z,15.68
2023-05-22T00:43:51.434Z,15.72
2023-05-22T00:46:21.605Z,15.80
2023-05-22T00:48:49.116Z,15.89
2023-05-22T00:51:16.102Z,15.97
2023-05-22T00:53:43.451Z,16.09
2023-05-22T00:56:10.407Z,16.17
2023-05-22T00:58:37.641Z,16.17
2023-05-22T01:01:07.790Z,16.14
2023-05-22T01:03:37.589Z,16.03
2023-05-22T01:06:04.962Z,15.90
2023-05-22T01:08:31.773Z,15.74
2023-05-22T01:11:08.280Z,15.58
2023-05-22T01:13:50.679Z,15.50
2023-05-22T01:16:29.947Z,15.50
2023-05-22T01:19:16.592Z,15.49
2023-05-22T01:21:52.145Z,15.47
2023-05-22T01:25:01.004Z,15.44
2023-05-22T01:27:28.655Z,15.29
2023-05-22T01:30:30.206Z,15.18
2023-05-22T01:32:59.337Z,15.11
2023-05-22T01:35:28.306Z,15.12
2023-05-22T01:37:57.197Z,15.04
2023-05-22T01:40:25.720Z,14.99
2023-05-22T01:42:52.746Z,15.01
2023-05-22T01:45:21.621Z,14.87
2023-05-22T01:47:48.837Z,14.81
2023-05-22T01:50:18.165Z,14.68
2023-05-22T01:53:09.941Z,14.72
2023-05-22T01:55:50.523Z,14.64
2023-05-22T01:58:23.264Z,14.57
2023-05-22T02:00:53.950Z,14.52
2023-05-22T02:03:25.147Z,14.44
2023-05-22T02:05:55.340Z,14.30
2023-05-22T02:08:22.997Z,14.28
2023-05-22T02:10:52.284Z,14.25
2023-05-22T02:13:21.686Z,14.29
2023-05-22T02:15:49.200Z,14.36
2023-05-22T02:18:16.451Z,14.39
2023-05-22T02:20:43.911Z,14.35
2023-05-22T02:23:11.021Z,14.32
2023-05-22T02:25:37.925Z,14.33
2023-05-22T02:28:04.844Z,14.29
2023-05-22T02:30:31.722Z,14.25
2023-05-22T02:33:00.436Z,14.18
2023-05-22T02:35:27.237Z,14.14
2023-05-22T02:37:54.212Z,14.05
2023-05-22T02:40:21.192Z,13.96
2023-05-22T02:42:48.046Z,13.90
2023-05-22T02:45:15.432Z,13.81
2023-05-22T02:47:42.264Z,13.80
2023-05-22T02:50:09.433Z,13.81
2023-05-22T02:52:37.220Z,13.75
2023-05-22T02:55:04.661Z,13.73
2023-05-22T02:57:31.925Z,13.82
2023-05-22T02:59:59.268Z,13.87
2023-05-22T03:02:28.498Z,14.08
2023-05-22T03:04:59.025Z,14.07
2023-05-22T03:07:26.511Z,14.11
2023-05-22T03:09:53.478Z,14.11
2023-05-22T03:12:21.190Z,14.16
2023-05-22T03:14:47.895Z,14.22
2023-05-22T03:17:14.657Z,14.39
2023-05-22T03:19:41.904Z,14.45
2023-05-22T03:22:08.758Z,14.55
2023-05-22T03:24:35.522Z,14.57
2023-05-22T03:27:02.828Z,14.56
2023-05-22T03:29:39.430Z,14.63
2023-05-22T03:32:06.526Z,14.66
2023-05-22T03:34:33.371Z,14.69
2023-05-22T03:37:01.622Z,14.76
2023-05-22T03:39:28.533Z,14.81
2023-05-22T03:42:14.079Z,14.87
2023-05-22T03:44:41.039Z,14.96
2023-05-22T03:47:07.934Z,15.04
2023-05-22T03:49:34.729Z,15.17
2023-05-22T03:52:01.511Z,15.35
2023-05-22T03:54:28.253Z,15.43
2023-05-22T03:56:56.581Z,15.45
2023-05-22T03:59:23.436Z,15.45
2023-05-22T04:01:50.997Z,15.42
2023-05-22T04:04:17.949Z,15.43
2023-05-22T04:06:45.071Z,15.44
2023-05-22T04:09:13.462Z,15.50
2023-05-22T04:11:40.270Z,15.54
2023-05-22T04:14:07.195Z,15.62
2023-05-22T04:16:34.244Z,15.62
2023-05-22T04:19:04.421Z,15.66
2023-05-22T04:21:34.470Z,15.81
2023-05-22T04:24:07.344Z,15.91
2023-05-22T04:26:34.574Z,16.04
2023-05-22T04:29:02.398Z,16.11
2023-05-22T04:31:29.703Z,16.16
2023-05-22T04:33:56.627Z,16.26
2023-05-22T04:36:26.084Z,16.30
2023-05-22T04:38:54.145Z,16.43
2023-05-22T04:41:26.828Z,16.51
2023-05-22T04:43:54.148Z,16.62
2023-05-22T04:46:21.302Z,16.62
2023-05-22T04:48:48.162Z,16.80
2023-05-22T04:51:15.961Z,16.92
2023-05-22T04:53:43.063Z,17.02
2023-05-22T04:56:09.913Z,17.10
2023-05-22T04:58:38.363Z,17.18
2023-05-22T05:01:06.018Z,17.24
2023-05-22T05:03:34.302Z,17.34
2023-05-22T05:06:01.390Z,17.45
2023-05-22T05:08:28.202Z,17.52
2023-05-22T05:10:55.072Z,17.62
2023-05-22T05:13:22.955Z,17.72
2023-05-22T05:15:49.780Z,17.82
2023-05-22T05:18:17.249Z,17.90
2023-05-22T05:20:44.155Z,17.97
2023-05-22T05:23:11.382Z,18.06
2023-05-22T05:25:38.807Z,18.12
2023-05-22T05:28:10.899Z,18.13
2023-05-22T05:30:40.222Z,18.12
2023-05-22T05:33:22.287Z,18.13
2023-05-22T05:36:08.442Z,18.18
2023-05-22T05:38:36.018Z,18.26
2023-05-22T05:41:02.777Z,18.29
2023-05-22T05:43:30.070Z,18.33
2023-05-22T05:46:02.370Z,18.48
2023-05-22T05:48:29.388Z,18.49
2023-05-22T05:50:57.349Z,18.52
2023-05-22T05:53:25.049Z,18.61
2023-05-22T05:55:57.955Z,18.63
2023-05-22T05:58:26.066Z,18.67
2023-05-22T06:01:11.885Z,18.66
2023-05-22T06:03:39.295Z,18.75
2023-05-22T06:06:26.253Z,18.75
2023-05-22T06:09:16.428Z,18.83
2023-05-22T06:12:02.025Z,18.84
2023-05-22T06:14:29.170Z,18.94
2023-05-22T06:16:56.423Z,18.95
2023-05-22T06:19:23.489Z,18.95
2023-05-22T06:21:52.021Z,18.95
2023-05-22T06:24:20.255Z,19.02
2023-05-22T06:26:47.031Z,19.00
2023-05-22T06:29:14.907Z,19.06
2023-05-22T06:31:41.770Z,19.05
2023-05-22T06:34:09.182Z,19.12
2023-05-22T06:36:36.077Z,19.21
2023-05-22T06:39:03.462Z,19.22
2023-05-22T06:41:48.842Z,19.31
2023-05-22T06:44:15.853Z,19.32
2023-05-22T06:46:42.724Z,19.38
2023-05-22T06:49:14.756Z,19.44
2023-05-22T06:51:44.436Z,19.52
2023-05-22T06:54:14.150Z,19.43
2023-05-22T06:56:46.141Z,19.46
2023-05-22T06:59:17.400Z,19.46
2023-05-22T07:02:04.604Z,19.55
2023-05-22T07:05:03.264Z,19.63
2023-05-22T07:07:36.099Z,19.75
2023-05-22T07:10:03.535Z,19.76
2023-05-22T07:12:30.551Z,19.77
2023-05-22T07:15:00.039Z,19.81
2023-05-22T07:17:27.047Z,19.81
2023-05-22T07:19:55.579Z,19.91
2023-05-22T07:22:22.688Z,19.96
2023-05-22T07:24:49.525Z,19.96
2023-05-22T07:27:18.161Z,20.00
2023-05-22T07:29:47.600Z,20.03
2023-05-22T07:32:14.494Z,20.10
2023-05-22T07:34:42.430Z,20.11
2023-05-22T07:37:12.425Z,20.21
2023-05-22T07:39:39.881Z,20.26
2023-05-22T07:42:07.581Z,20.32
2023-05-22T07:44:41.136Z,20.25
2023-05-22T07:47:09.026Z,20.32
2023-05-22T07:49:36.306Z,20.32
2023-05-22T07:52:03.329Z,20.35
2023-05-22T07:54:30.060Z,20.28
2023-05-22T07:56:57.815Z,20.27
2023-05-22T07:59:27.972Z,20.37
2023-05-22T08:01:58.478Z,20.36
2023-05-22T08:04:26.338Z,20.28
2023-05-22T08:06:53.318Z,20.24
2023-05-22T08:09:21.704Z,20.23
2023-05-22T08:11:48.495Z,20.29
2023-05-22T08:14:15.347Z,20.23
2023-05-22T08:16:42.232Z,20.27
2023-05-22T08:19:09.122Z,20.30
2023-05-22T08:21:37.535Z,20.47
2023-05-22T08:24:04.657Z,20.60
2023-05-22T08:26:33.314Z,20.60
2023-05-22T08:29:00.859Z,20.62
2023-05-22T08:31:31.035Z,20.61
2023-05-22T08:34:02.483Z,20.62
2023-05-22T08:36:34.416Z,20.62
2023-05-22T08:39:02.032Z,20.68
2023-05-22T08:41:29.830Z,20.73
2023-05-22T08:43:57.130Z,20.78
2023-05-22T08:46:29.308Z,20.89
2023-05-22T08:48:59.812Z,21.00
2023-05-22T08:51:33.081Z,21.04
2023-05-22T08:54:01.290Z,21.14
2023-05-22T08:56:29.593Z,21.18
2023-05-22T08:58:58.402Z,21.16
2023-05-22T09:01:25.387Z,21.24
2023-05-22T09:03:52.316Z,21.30
2023-05-22T09:06:19.417Z,21.29
2023-05-22T09:08:46.361Z,21.30
2023-05-22T09:11:13.479Z,21.33
2023-05-22T09:13:41.572Z,21.37
2023-05-22T09:16:13.236Z,21.42
2023-05-22T09:18:41.621Z,21.44
2023-05-22T09:21:21.526Z,21.51
2023-05-22T09:24:01.901Z,21.58
2023-05-22T09:26:29.495Z,21.65
2023-05-22T09:28:59.009Z,21.71
2023-05-22T09:31:25.747Z,21.75
2023-05-22T09:33:54.161Z,21.72
2023-05-22T09:36:22.142Z,21.69
2023-05-22T09:38:49.320Z,21.63
2023-05-22T09:41:26.172Z,21.71
2023-05-22T09:43:52.968Z,21.76
2023-05-22T09:46:19.778Z,21.80
2023-05-22T09:48:51.858Z,21.91
2023-05-22T09:51:24.132Z,21.91
2023-05-22T09:53:52.734Z,21.83
2023-05-22T09:56:34.917Z,21.80
2023-05-22T09:59:09.554Z,21.80
2023-05-22T10:01:39.085Z,21.81
2023-05-22T10:04:10.234Z,21.82
2023-05-22T10:06:37.919Z,21.85
2023-05-22T10:09:12.036Z,21.88
2023-05-22T10:11:39.028Z,21.86
2023-05-22T10:14:07.507Z,21.96
2023-05-22T10:16:38.392Z,21.96
2023-05-22T10:19:07.841Z,22.05
2023-05-22T10:21:36.906Z,22.15
2023-05-22T10:24:06.359Z,22.20
2023-05-22T10:26:33.399Z,22.27
2023-05-22T10:29:07.581Z,22.36
2023-05-22T10:31:46.137Z,22.43
2023-05-22T10:34:49.083Z,22.53
2023-05-22T10:37:25.039Z,22.63
2023-05-22T10:40:00.997Z,22.77
2023-05-22T10:42:32.161Z,22.85
2023-05-22T10:45:00.990Z,22.96
2023-05-22T10:47:27.891Z,23.08
2023-05-22T10:50:09.372Z,23.23
2023-05-22T10:52:37.509Z,23.36
2023-05-22T10:55:09.315Z,23.49
2023-05-22T10:57:40.360Z,23.59
2023-05-22T11:00:12.865Z,23.76
2023-05-22T11:02:42.493Z,23.90
2023-05-22T11:05:20.014Z,24.08
2023-05-22T11:07:47.450Z,24.05
2023-05-22T11:10:14.244Z,24.21
2023-05-22T11:12:41.655Z,24.26
2023-05-22T11:15:09.999Z,24.43
2023-05-22T11:17:39.882Z,24.57
2023-05-22T11:20:13.805Z,24.73
2023-05-22T11:22:49.939Z,24.90
2023-05-22T11:25:18.505Z,25.04
2023-05-22T11:27:47.467Z,25.17
2023-05-22T11:30:15.921Z,25.31
2023-05-22T11:32:46.457Z,25.51
2023-05-22T11:35:21.062Z,25.51
2023-05-22T11:37:49.805Z,25.67
2023-05-22T11:40:21.706Z,25.68
2023-05-22T11:42:48.728Z,25.72
2023-05-22T11:45:16.214Z,25.86
2023-05-22T11:47:43.768Z,25.99
2023-05-22T11:50:12.772Z,26.10
2023-05-22T11:52:41.473Z,26.17
2023-05-22T11:55:09.847Z,26.17
2023-05-22T11:57:37.300Z,26.08
2023-05-22T12:00:09.183Z,25.95
2023-05-22T12:02:39.457Z,25.74
2023-05-22T12:05:06.911Z,25.64
2023-05-22T12:07:34.007Z,25.53
2023-05-22T12:10:01.313Z,25.42
2023-05-22T12:12:28.155Z,25.31
2023-05-22T12:14:54.976Z,25.23
2023-05-22T12:17:23.062Z,25.13
2023-05-22T12:19:49.777Z,24.99
2023-05-22T12:22:16.601Z,24.97
2023-05-22T12:24:48.165Z,24.98
2023-05-22T12:27:15.721Z,24.96
2023-05-22T12:29:43.365Z,24.92
2023-05-22T12:32:12.127Z,24.87
2023-05-22T12:34:46.677Z,24.79
2023-05-22T12:37:25.013Z,24.77
2023-05-22T12:39:56.438Z,24.68
2023-05-22T12:42:23.831Z,24.61
2023-05-22T12:44:53.058Z,24.66
2023-05-22T12:47:19.945Z,24.60
2023-05-22T12:49:46.774Z,24.55
2023-05-22T12:52:13.806Z,24.50
2023-05-22T12:54:40.861Z,24.43
2023-05-22T12:57:07.698Z,24.48
2023-05-22T12:59:34.832Z,24.47
2023-05-22T13:02:03.228Z,24.46
2023-05-22T13:04:30.595Z,24.46
2023-05-22T13:06:57.350Z,24.56
2023-05-22T13:09:24.121Z,24.61
2023-05-22T13:11:50.893Z,24.56
2023-05-22T13:14:17.999Z,24.56
2023-05-22T13:16:45.107Z,24.53
2023-05-22T13:19:12.000Z,24.50
2023-05-22T13:21:38.677Z,24.49
2023-05-22T13:24:05.507Z,24.50
2023-05-22T13:26:32.203Z,24.51
2023-05-22T13:28:59.043Z,24.44
2023-05-22T13:31:26.287Z,24.43
2023-05-22T13:33:53.224Z,24.49
2023-05-22T13:36:20.010Z,24.48
2023-05-22T13:38:46.794Z,24.42
2023-05-22T13:41:15.532Z,24.45
2023-05-22T13:43:42.410Z,24.54
2023-05-22T13:46:09.197Z,24.44
2023-05-22T13:48:36.109Z,24.40
2023-05-22T13:51:03.236Z,24.34
2023-05-22T13:53:30.054Z,24.37
2023-05-22T13:55:56.933Z,24.31
2023-05-22T13:58:23.723Z,24.40
2023-05-22T14:00:50.648Z,24.44
2023-05-22T14:03:18.473Z,24.43
2023-05-22T14:05:45.746Z,24.49
2023-05-22T14:08:12.747Z,24.50
2023-05-22T14:10:39.735Z,24.57
2023-05-22T14:13:06.607Z,24.61
2023-05-22T14:15:33.446Z,24.61
2023-05-22T14:18:01.012Z,24.60
2023-05-22T14:20:28.030Z,24.63
2023-05-22T14:22:57.549Z,24.70
2023-05-22T14:25:26.324Z,24.63
2023-05-22T14:27:53.172Z,24.51
2023-05-22T14:30:20.124Z,24.52
2023-05-22T14:32:47.088Z,24.44
2023-05-22T14:35:13.990Z,24.43
2023-05-22T14:37:40.751Z,24.39
2023-05-22T14:40:08.426Z,24.50
2023-05-22T14:42:35.687Z,24.60
2023-05-22T14:45:04.003Z,24.60
2023-05-22T14:47:30.749Z,24.58
2023-05-22T14:50:06.267Z,24.63
2023-05-22T14:52:46.688Z,24.55
2023-05-22T14:55:13.543Z,24.53
2023-05-22T14:57:40.451Z,24.53
2023-05-22T15:00:09.681Z,24.43
2023-05-22T15:02:37.237Z,24.41
2023-05-22T15:05:04.557Z,24.32
2023-05-22T15:07:43.082Z,24.38
2023-05-22T15:10:11.338Z,24.34
2023-05-22T15:12:38.224Z,24.38
2023-05-22T15:15:05.487Z,24.44
2023-05-22T15:17:32.333Z,24.45
2023-05-22T15:19:59.175Z,24.55
2023-05-22T15:22:25.953Z,24.55
2023-05-22T15:25:06.257Z,24.49
2023-05-22T15:27:37.386Z,24.44
2023-05-22T15:30:05.861Z,24.44
2023-05-22T15:32:33.264Z,24.39
2023-05-22T15:35:00.244Z,24.44
2023-05-22T15:37:28.617Z,24.39
2023-05-22T15:39:56.343Z,24.46
2023-05-22T15:42:23.140Z,24.63
2023-05-22T15:44:50.120Z,24.60
2023-05-22T15:47:16.930Z,24.62
2023-05-22T15:49:43.615Z,24.67
2023-05-22T15:52:10.446Z,24.56
2023-05-22T15:54:37.237Z,24.56
2023-05-22T15:57:04.236Z,24.56
2023-05-22T15:59:31.061Z,24.59
2023-05-22T16:01:57.765Z,24.53
2023-05-22T16:04:24.469Z,24.47
2023-05-22T16:06:51.252Z,24.57
2023-05-22T16:09:19.490Z,24.82
2023-05-22T16:11:46.251Z,25.38
2023-05-22T16:14:13.642Z,26.12
2023-05-22T16:16:41.132Z,26.18
2023-05-22T16:19:08.364Z,25.86
2023-05-22T16:21:35.212Z,25.59
2023-05-22T16:24:02.015Z,25.30
2023-05-22T16:26:29.292Z,25.03
2023-05-22T16:28:56.039Z,24.83
2023-05-22T16:31:22.834Z,24.63
2023-05-22T16:33:49.627Z,24.54
2023-05-22T16:36:16.366Z,24.38
2023-05-22T16:38:43.212Z,24.22
2023-05-22T16:41:09.923Z,24.16
2023-05-22T16:43:38.215Z,24.07
2023-05-22T16:46:04.966Z,23.95
2023-05-22T16:48:31.720Z,23.90
2023-05-22T16:50:58.494Z,23.79
2023-05-22T16:53:25.284Z,23.69
2023-05-22T16:55:52.032Z,23.71
2023-05-22T16:58:19.134Z,23.61
2023-05-22T17:00:46.186Z,23.60
2023-05-22T17:03:14.125Z,23.53
2023-05-22T17:05:41.465Z,23.52
2023-05-22T17:08:08.563Z,23.46
2023-05-22T17:10:35.461Z,23.43
2023-05-22T17:13:02.215Z,23.39
2023-05-22T17:15:29.051Z,23.40
2023-05-22T17:17:55.958Z,23.31
2023-05-22T17:20:25.923Z,23.26
2023-05-22T17:22:52.780Z,23.19
2023-05-22T17:25:19.631Z,23.15
2023-05-22T17:27:46.582Z,23.08
2023-05-22T17:30:13.366Z,23.03
2023-05-22T17:32:40.224Z,22.94
2023-05-22T17:35:07.319Z,22.87
2023-05-22T17:37:34.098Z,22.84
2023-05-22T17:40:00.923Z,22.79
2023-05-22T17:42:27.772Z,22.75
2023-05-22T17:44:54.548Z,22.72
2023-05-22T17:47:21.481Z,22.66
2023-05-22T17:49:48.421Z,22.65
2023-05-22T17:52:15.242Z,22.61
2023-05-22T17:54:41.986Z,22.53
2023-05-22T17:57:08.757Z,22.53
2023-05-22T17:59:36.688Z,22.49
2023-05-22T18:02:04.839Z,22.43
2023-05-22T18:04:31.651Z,22.42
2023-05-22T18:06:58.344Z,22.42
2023-05-22T18:09:25.206Z,22.40
2023-05-22T18:11:53.092Z,22.29
2023-05-22T18:14:20.112Z,22.18
2023-05-22T18:16:49.950Z,22.09
2023-05-22T18:19:16.687Z,21.94
2023-05-22T18:21:43.629Z,21.89
2023-05-22T18:24:10.355Z,21.82
2023-05-22T18:26:37.076Z,21.72
2023-05-22T18:29:03.936Z,21.59
2023-05-22T18:31:30.872Z,21.39
2023-05-22T18:33:57.700Z,21.24
2023-05-22T18:36:24.608Z,21.15
2023-05-22T18:38:51.360Z,21.09
2023-05-22T18:41:18.094Z,21.03
2023-05-22T18:43:44.862Z,20.95
2023-05-22T18:46:11.657Z,20.80
2023-05-22T18:48:38.416Z,20.69
2023-05-22T18:51:05.665Z,20.62
2023-05-22T18:53:32.574Z,20.48
2023-05-22T18:55:59.302Z,20.37
2023-05-22T18:58:26.780Z,20.24
2023-05-22T19:00:55.749Z,20.16
2023-05-22T19:03:22.706Z,20.13
2023-05-22T19:05:49.634Z,20.02
2023-05-22T19:08:16.572Z,19.92
2023-05-22T19:10:43.476Z,19.89
2023-05-22T19:13:10.353Z,19.76
2023-05-22T19:15:38.392Z,19.67
2023-05-22T19:18:05.492Z,19.66
2023-05-22T19:20:32.334Z,19.62
2023-05-22T19:22:59.132Z,19.58
2023-05-22T19:25:25.957Z,19.50
2023-05-22T19:27:52.902Z,19.39
2023-05-22T19:30:21.923Z,19.35
2023-05-22T19:32:55.614Z,19.26
2023-05-22T19:35:22.938Z,19.22
2023-05-22T19:37:50.259Z,19.17
2023-05-22T19:40:17.727Z,19.15
2023-05-22T19:42:44.533Z,19.04
2023-05-22T19:45:11.355Z,18.93
2023-05-22T19:47:38.106Z,18.81
2023-05-22T19:50:05.430Z,18.83
2023-05-22T19:52:32.527Z,18.77
2023-05-22T19:54:59.341Z,18.68
2023-05-22T19:57:27.171Z,18.61
2023-05-22T19:59:54.672Z,18.66
2023-05-22T20:02:21.435Z,18.63
2023-05-22T20:04:48.592Z,18.62
2023-05-22T20:07:15.751Z,18.55
2023-05-22T20:09:42.627Z,18.49
2023-05-22T20:12:10.510Z,18.43
2023-05-22T20:14:37.722Z,18.41
2023-05-22T20:17:05.044Z,18.41
2023-05-22T20:19:34.679Z,18.36
2023-05-22T20:22:01.556Z,18.31
2023-05-22T20:24:28.303Z,18.32
2023-05-22T20:26:55.105Z,18.26
2023-05-22T20:29:21.908Z,18.17
2023-05-22T20:31:48.733Z,18.15
2023-05-22T20:34:15.791Z,18.11
2023-05-22T20:36:46.592Z,18.08
2023-05-22T20:39:13.416Z,18.20
2023-05-22T20:41:40.172Z,18.19
2023-05-22T20:44:07.835Z,18.12
2023-05-22T20:46:34.538Z,18.24
2023-05-22T20:49:02.928Z,18.20
2023-05-22T20:51:32.751Z,18.20
2023-05-22T20:53:59.981Z,18.11
2023-05-22T20:56:27.227Z,18.02
2023-05-22T20:58:54.488Z,17.98
2023-05-22T21:01:21.758Z,17.88
2023-05-22T21:03:50.073Z,17.85
2023-05-22T21:06:16.876Z,17.73
2023-05-22T21:08:43.649Z,17.76
2023-05-22T21:11:10.470Z,17.74
2023-05-22T21:13:37.190Z,17.76
2023-05-22T21:16:04.021Z,17.82
2023-05-22T21:18:30.815Z,17.83
2023-05-22T21:20:57.515Z,17.84
2023-05-22T21:23:24.790Z,17.78
2023-05-22T21:25:51.532Z,17.75
2023-05-22T21:28:18.325Z,17.80
2023-05-22T21:30:45.169Z,17.73
2023-05-22T21:33:12.101Z,17.64
2023-05-22T21:35:38.890Z,17.59
2023-05-22T21:38:05.628Z,17.52
2023-05-22T21:40:34.488Z,17.52
2023-05-22T21:43:01.325Z,17.51
2023-05-22T21:45:28.124Z,17.45
2023-05-22T21:47:54.946Z,17.41
2023-05-22T21:50:21.708Z,17.35
2023-05-22T21:52:48.391Z,17.16
2023-05-22T21:55:15.160Z,17.12
2023-05-22T21:57:41.960Z,17.08
2023-05-22T22:00:09.293Z,17.05
2023-05-22T22:02:36.006Z,17.09
2023-05-22T22:05:03.143Z,17.11
2023-05-22T22:07:29.872Z,17.03
2023-05-22T22:09:57.942Z,17.01
2023-05-22T22:12:24.791Z,16.93
2023-05-22T22:14:51.475Z,16.86
2023-05-22T22:17:23.823Z,16.91
2023-05-22T22:19:53.624Z,16.99
2023-05-22T22:22:22.692Z,17.02
2023-05-22T22:24:49.857Z,16.87
2023-05-22T22:27:16.780Z,16.76
2023-05-22T22:29:43.784Z,16.67
2023-05-22T22:32:10.685Z,16.62
2023-05-22T22:34:37.712Z,16.60
2023-05-22T22:37:05.796Z,16.58
2023-05-22T22:39:32.610Z,16.49
2023-05-22T22:42:04.230Z,16.54
2023-05-22T22:44:31.822Z,16.58
2023-05-22T22:46:58.606Z,16.57
2023-05-22T22:49:25.423Z,16.47
2023-05-22T22:51:52.597Z,16.45
2023-05-22T22:54:19.395Z,16.39
2023-05-22T22:56:47.258Z,16.34
2023-05-22T22:59:14.080Z,16.26
2023-05-22T23:01:40.879Z,16.33
2023-05-22T23:04:07.973Z,16.27
2023-05-22T23:06:35.293Z,16.30
2023-05-22T23:09:03.829Z,16.20
2023-05-22T23:11:39.630Z,16.08
2023-05-22T23:14:08.505Z,15.94
2023-05-22T23:16:36.631Z,15.88
2023-05-22T23:19:07.952Z,15.84
2023-05-22T23:21:35.145Z,15.88
2023-05-22T23:24:04.511Z,15.80
2023-05-22T23:26:31.823Z,15.76
2023-05-22T23:28:59.607Z,15.69
2023-05-22T23:31:30.106Z,15.54
2023-05-22T23:33:57.691Z,15.49
2023-05-22T23:36:24.980Z,15.48
2023-05-22T23:38:51.878Z,15.49
2023-05-22T23:41:18.792Z,15.57
2023-05-22T23:43:46.207Z,15.74
2023-05-22T23:46:14.162Z,15.81
2023-05-22T23:48:42.437Z,15.81
2023-05-22T23:51:14.606Z,15.77
2023-05-22T23:53:42.307Z,15.77
2023-05-22T23:56:09.662Z,15.73
2023-05-22T23:58:39.886Z,15.66
